This is the latest recevied weather packets stored in our database for station/object KG7DQI-13. If no packets are shown the sender has not sent any weather packets the latest 10 day(s).
| Time | Temp. | Humidity | Pressure | Rain* | Wind** | Luminosity | Snow |
|---|---|---|---|---|---|---|---|
| 1788666177 | 13.33° C | 68% | 914.9 hPa | 0 mm | - | 0 W/m² | - |
| 1788663375 | 15° C | 61% | 914.2 hPa | 0 mm | - | 0 W/m² | - |
| 1788661540 | 16.11° C | 58% | 914 hPa | 0 mm | - | 0 W/m² | - |
| 1788660648 | 16.11° C | 57% | 914 hPa | 0 mm | - | 5 W/m² | - |
| 1788655201 | 18.33° C | 50% | 913.9 hPa | 0 mm | - | 95 W/m² | - |
| 1788653376 | 18.33° C | 47% | 913.8 hPa | 0 mm | - | 163 W/m² | - |
| 1788650624 | 18.89° C | 47% | 913.8 hPa | 0 mm | - | 214 W/m² | - |
| 1788649743 | 20° C | 45% | 913.8 hPa | 0 mm | - | 362 W/m² | - |
| 1788647016 | 18.89° C | 44% | 913.8 hPa | 0 mm | - | 199 W/m² | - |
| 1788646131 | 20° C | 43% | 913.7 hPa | 0 mm | - | 267 W/m² | - |
| 1788645196 | 20° C | 46% | 913.9 hPa | 0 mm | - | 805 W/m² | - |
| 1788643396 | 18.89° C | 47% | 914 hPa | 0 mm | - | 782 W/m² | - |
| 1788641571 | 18.89° C | 52% | 914.3 hPa | 0 mm | - | 853 W/m² | - |
| 1788640652 | 18.89° C | 51% | 914.5 hPa | 0 mm | - | 805 W/m² | - |
| 1788639734 | 18.33° C | 53% | 914.7 hPa | 0 mm | - | 838 W/m² | - |
| 1788637934 | 17.22° C | 57% | 914.7 hPa | 0 mm | - | 803 W/m² | - |
| 1788635220 | 15.56° C | 66% | 915.2 hPa | 0 mm | - | 824 W/m² | - |
| 1788634285 | 15° C | 67% | 915.4 hPa | 0 mm | - | 759 W/m² | - |
| 1788633395 | 14.44° C | 71% | 915.4 hPa | 0 mm | - | 735 W/m² | - |
| 1788632498 | 13.33° C | 73% | 915.7 hPa | 0 mm | - | 707 W/m² | - |
| 1788631569 | 12.78° C | 74% | 916 hPa | 0 mm | - | 686 W/m² | - |
| 1788629769 | 11.67° C | 78% | 916.2 hPa | 0 mm | - | 638 W/m² | - |
| 1788627917 | 10° C | 82% | 916.3 hPa | 0 mm | - | 160 W/m² | - |
| 1788626999 | 10° C | 82% | 916.3 hPa | 0 mm | - | 121 W/m² | - |
| 1788626111 | 10° C | 85% | 916.2 hPa | 0 mm | - | 181 W/m² | - |
* Rain latest hour (hover to see other rain measurements)
** Current wind speed in m/s (hover to see current wind gust speed)